createdAt,value
2022-11-08T00:01:20.720Z,101807.63
2022-11-08T00:03:47.579Z,101830.94
2022-11-08T00:06:32.907Z,101823.28
2022-11-08T00:09:23.090Z,101833.59
2022-11-08T00:12:10.321Z,101828.72
2022-11-08T00:14:37.157Z,101837.75
2022-11-08T00:17:04.092Z,101836.50
2022-11-08T00:19:30.984Z,101851.38
2022-11-08T00:22:00.531Z,101857.78
2022-11-08T00:24:27.327Z,101741.03
2022-11-08T00:26:54.108Z,101832.06
2022-11-08T00:29:22.143Z,101814.47
2022-11-08T00:31:57.662Z,101818.97
2022-11-08T00:34:24.231Z,101732.38
2022-11-08T00:36:53.684Z,101848.66
2022-11-08T00:39:21.248Z,101828.69
2022-11-08T00:41:48.016Z,101824.88
2022-11-08T00:44:14.651Z,101783.06
2022-11-08T00:46:41.660Z,101849.25
2022-11-08T00:49:11.526Z,101841.91
2022-11-08T00:51:39.536Z,101836.50
2022-11-08T00:54:09.318Z,101844.47
2022-11-08T00:56:36.058Z,101737.03
2022-11-08T00:59:02.830Z,101822.31
2022-11-08T01:01:37.509Z,101787.41
2022-11-08T01:04:04.754Z,101826.56
2022-11-08T01:06:31.574Z,101840.41
2022-11-08T01:08:58.277Z,101850.97
2022-11-08T01:11:29.227Z,101789.88
2022-11-08T01:14:00.874Z,101854.81
2022-11-08T01:16:31.001Z,101833.72
2022-11-08T01:19:02.138Z,101851.41
2022-11-08T01:21:38.407Z,101822.31
2022-11-08T01:24:06.168Z,101826.06
2022-11-08T01:26:32.827Z,101854.25
2022-11-08T01:29:06.108Z,101829.69
2022-11-08T01:31:33.107Z,101820.56
2022-11-08T01:34:03.214Z,101839.63
2022-11-08T01:36:30.319Z,101820.00
2022-11-08T01:38:57.566Z,101811.53
2022-11-08T01:41:28.090Z,101841.53
2022-11-08T01:44:03.028Z,101817.34
2022-11-08T01:46:45.679Z,101826.06
2022-11-08T01:49:25.674Z,101788.09
2022-11-08T01:52:08.280Z,101826.22
2022-11-08T01:54:54.164Z,101825.72
2022-11-08T01:57:26.838Z,101819.28
2022-11-08T02:00:00.683Z,101768.25
2022-11-08T02:02:30.413Z,101809.00
2022-11-08T02:04:59.170Z,101820.38
2022-11-08T02:07:29.411Z,101795.13
2022-11-08T02:09:57.487Z,101818.16
2022-11-08T02:12:27.002Z,101819.22
2022-11-08T02:14:57.470Z,101818.47
2022-11-08T02:17:24.795Z,101816.16
2022-11-08T02:19:53.932Z,101781.47
2022-11-08T02:22:38.302Z,101790.41
2022-11-08T02:25:07.550Z,101808.13
2022-11-08T02:27:35.170Z,101783.94
2022-11-08T02:30:01.876Z,101743.94
2022-11-08T02:32:40.991Z,101786.38
2022-11-08T02:35:16.899Z,101735.31
2022-11-08T02:37:46.633Z,101816.09
2022-11-08T02:40:19.493Z,101785.28
2022-11-08T02:42:48.426Z,101799.84
2022-11-08T02:45:18.099Z,101787.94
2022-11-08T02:47:44.863Z,101784.53
2022-11-08T02:50:14.134Z,101792.00
2022-11-08T02:52:41.018Z,101804.63
2022-11-08T02:55:14.021Z,101815.78
2022-11-08T02:57:40.878Z,101798.72
2022-11-08T03:00:08.367Z,101748.38
2022-11-08T03:02:35.253Z,101777.13
2022-11-08T03:05:02.552Z,101783.84
2022-11-08T03:07:29.659Z,101797.84
2022-11-08T03:09:56.736Z,101766.84
2022-11-08T03:12:23.620Z,101759.31
2022-11-08T03:14:50.656Z,101740.13
2022-11-08T03:17:17.568Z,101779.78
2022-11-08T03:19:44.445Z,101778.47
2022-11-08T03:22:11.269Z,101795.38
2022-11-08T03:24:38.691Z,101771.63
2022-11-08T03:27:05.634Z,101796.97
2022-11-08T03:29:32.425Z,101789.22
2022-11-08T03:31:59.145Z,101759.56
2022-11-08T03:34:32.699Z,101805.94
2022-11-08T03:36:59.941Z,101780.69
2022-11-08T03:39:27.985Z,101647.63
2022-11-08T03:42:03.147Z,101760.31
2022-11-08T03:44:30.838Z,101785.41
2022-11-08T03:47:00.359Z,101742.56
2022-11-08T03:49:33.262Z,101775.25
2022-11-08T03:52:00.006Z,101781.97
2022-11-08T03:54:27.276Z,101785.88
2022-11-08T03:56:54.451Z,101773.84
2022-11-08T03:59:21.213Z,101757.72
2022-11-08T04:01:48.183Z,101722.41
2022-11-08T04:04:18.130Z,101703.91
2022-11-08T04:06:45.063Z,101731.41
2022-11-08T04:09:11.961Z,101762.91
2022-11-08T04:11:57.170Z,101759.59
2022-11-08T04:14:42.420Z,101699.34
2022-11-08T04:17:09.154Z,101755.13
2022-11-08T04:19:55.952Z,101772.34
2022-11-08T04:22:22.895Z,101787.75
2022-11-08T04:24:50.975Z,101758.84
2022-11-08T04:27:17.744Z,101788.91
2022-11-08T04:29:44.702Z,101736.47
2022-11-08T04:32:11.371Z,101776.59
2022-11-08T04:34:40.592Z,101765.88
2022-11-08T04:37:07.534Z,101754.63
2022-11-08T04:39:34.310Z,101769.53
2022-11-08T04:42:03.890Z,101756.22
2022-11-08T04:44:30.551Z,101770.44
2022-11-08T04:47:00.297Z,101755.16
2022-11-08T04:49:28.566Z,101747.50
2022-11-08T04:51:55.292Z,101749.66
2022-11-08T04:54:24.036Z,101768.63
2022-11-08T04:56:50.728Z,101760.94
2022-11-08T04:59:18.377Z,101747.41
2022-11-08T05:01:45.594Z,101717.19
2022-11-08T05:04:12.484Z,101763.97
2022-11-08T05:06:45.331Z,101770.22
2022-11-08T05:09:15.174Z,101719.31
2022-11-08T05:11:42.861Z,101758.16
2022-11-08T05:14:10.260Z,101768.69
2022-11-08T05:16:37.023Z,101761.66
2022-11-08T05:19:06.939Z,101771.84
2022-11-08T05:21:56.680Z,101772.84
2022-11-08T05:24:23.407Z,101743.00
2022-11-08T05:26:50.336Z,101769.94
2022-11-08T05:29:17.535Z,101741.09
2022-11-08T05:31:44.357Z,101757.53
2022-11-08T05:34:11.162Z,101763.88
2022-11-08T05:36:37.810Z,101760.72
2022-11-08T05:39:07.173Z,101771.84
2022-11-08T05:41:33.976Z,101760.72
2022-11-08T05:44:00.598Z,101744.81
2022-11-08T05:46:28.705Z,101743.25
2022-11-08T05:48:55.783Z,101778.06
2022-11-08T05:51:22.846Z,101768.69
2022-11-08T05:53:49.770Z,101705.78
2022-11-08T05:56:20.731Z,101772.50
2022-11-08T05:58:50.119Z,101762.41
2022-11-08T06:01:19.375Z,101776.38
2022-11-08T06:03:47.317Z,101784.69
2022-11-08T06:06:16.887Z,101755.31
2022-11-08T06:08:48.898Z,101782.34
2022-11-08T06:11:19.208Z,101784.03
2022-11-08T06:13:45.885Z,101779.78
2022-11-08T06:16:18.953Z,101757.91
2022-11-08T06:18:46.113Z,101785.09
2022-11-08T06:21:18.400Z,101779.81
2022-11-08T06:23:45.242Z,101756.53
2022-11-08T06:26:12.179Z,101692.78
2022-11-08T06:28:39.050Z,101754.47
2022-11-08T06:31:06.115Z,101771.56
2022-11-08T06:33:32.942Z,101792.50
2022-11-08T06:35:59.834Z,101713.78
2022-11-08T06:38:28.169Z,101736.06
2022-11-08T06:40:55.977Z,101797.19
2022-11-08T06:43:23.236Z,101765.16
2022-11-08T06:45:52.422Z,101734.16
2022-11-08T06:48:20.699Z,101802.06
2022-11-08T06:50:47.404Z,101807.66
2022-11-08T06:53:15.141Z,101804.78
2022-11-08T06:55:42.312Z,101796.59
2022-11-08T06:58:10.813Z,101789.91
2022-11-08T07:00:37.754Z,101731.06
2022-11-08T07:03:04.880Z,101789.63
2022-11-08T07:05:34.388Z,101782.59
2022-11-08T07:08:06.283Z,101798.03
2022-11-08T07:10:40.610Z,101786.00
2022-11-08T07:13:11.761Z,101797.31
2022-11-08T07:15:38.710Z,101807.28
2022-11-08T07:18:08.391Z,101576.63
2022-11-08T07:20:35.413Z,101803.34
2022-11-08T07:23:02.205Z,101705.31
2022-11-08T07:25:30.125Z,101808.69
2022-11-08T07:28:00.180Z,101788.13
2022-11-08T07:30:27.801Z,101806.84
2022-11-08T07:32:56.552Z,101784.19
2022-11-08T07:35:24.191Z,101779.00
2022-11-08T07:37:51.064Z,101729.53
2022-11-08T07:40:20.330Z,101768.34
2022-11-08T07:43:43.411Z,101812.94
2022-11-08T07:46:10.099Z,101803.25
2022-11-08T07:48:37.348Z,101814.66
2022-11-08T07:51:04.200Z,101789.47
2022-11-08T07:53:31.458Z,101815.28
2022-11-08T07:55:58.749Z,101805.63
2022-11-08T07:58:25.586Z,101813.97
2022-11-08T08:00:52.278Z,101786.13
2022-11-08T08:03:21.611Z,101797.50
2022-11-08T08:05:56.531Z,101788.28
2022-11-08T08:08:32.935Z,101798.72
2022-11-08T08:11:02.382Z,101824.00
2022-11-08T08:13:36.824Z,101804.16
2022-11-08T08:16:04.033Z,101823.13
2022-11-08T08:18:31.051Z,101817.09
2022-11-08T08:21:00.849Z,101803.78
2022-11-08T08:23:27.867Z,101825.84
2022-11-08T08:25:54.715Z,101824.72
2022-11-08T08:28:26.670Z,101823.78
2022-11-08T08:30:56.591Z,101825.72
2022-11-08T08:33:30.652Z,101823.84
2022-11-08T08:36:00.719Z,101839.59
2022-11-08T08:38:27.725Z,101813.47
2022-11-08T08:40:54.536Z,101835.91
2022-11-08T08:43:27.299Z,101769.59
2022-11-08T08:45:59.141Z,101746.03
2022-11-08T08:48:25.673Z,101836.38
2022-11-08T08:50:55.852Z,101827.69
2022-11-08T08:53:22.732Z,101830.06
2022-11-08T08:55:52.534Z,101836.50
2022-11-08T08:58:21.107Z,101822.41
2022-11-08T09:03:39.751Z,101842.69
2022-11-08T09:06:06.626Z,101706.06
2022-11-08T09:08:33.444Z,101818.38
2022-11-08T09:11:01.649Z,101836.94
2022-11-08T09:13:31.039Z,101627.53
2022-11-08T09:16:02.031Z,101845.38
2022-11-08T09:18:29.270Z,101789.31
2022-11-08T09:20:59.900Z,101790.03
2022-11-08T09:23:27.528Z,101797.00
2022-11-08T09:26:03.329Z,101839.63
2022-11-08T09:28:34.490Z,101779.44
2022-11-08T09:31:06.359Z,101822.47
2022-11-08T09:33:33.267Z,101836.00
2022-11-08T09:36:01.710Z,101804.56
2022-11-08T09:38:30.371Z,101801.91
2022-11-08T09:41:19.646Z,101785.16
2022-11-08T09:43:57.291Z,101780.00
2022-11-08T09:46:38.836Z,101853.16
2022-11-08T09:49:24.224Z,101828.22
2022-11-08T09:51:52.063Z,101849.94
2022-11-08T09:54:27.500Z,101817.09
2022-11-08T09:56:55.739Z,101856.41
2022-11-08T10:03:16.976Z,101843.56
2022-11-08T10:06:00.254Z,101832.44
2022-11-08T10:08:43.153Z,101839.75
2022-11-08T10:11:22.839Z,101768.19
2022-11-08T10:14:19.595Z,101822.94
2022-11-08T10:17:07.540Z,101820.00
2022-11-08T10:19:51.764Z,101772.69
2022-11-08T10:22:24.536Z,101808.44
2022-11-08T10:25:04.282Z,101778.31
2022-11-08T10:27:41.043Z,101752.84
2022-11-08T10:30:34.660Z,101788.75
2022-11-08T10:33:02.615Z,101784.38
2022-11-08T10:35:43.072Z,101746.47
2022-11-08T10:38:24.962Z,101738.84
2022-11-08T10:40:53.028Z,101798.25
2022-11-08T10:44:13.007Z,101785.78
2022-11-08T10:46:48.730Z,101782.34
2022-11-08T10:49:17.460Z,101803.41
2022-11-08T10:51:45.997Z,101794.41
2022-11-08T10:54:43.796Z,101781.13
2022-11-08T10:57:33.190Z,101757.75
2022-11-08T11:00:24.590Z,101780.97
2022-11-08T11:03:12.103Z,101704.72
2022-11-08T11:05:43.163Z,101768.59
2022-11-08T11:08:09.828Z,101780.47
2022-11-08T11:10:43.635Z,101613.34
2022-11-08T11:13:16.579Z,101771.97
2022-11-08T11:15:52.944Z,101756.69
2022-11-08T11:18:33.298Z,101742.25
2022-11-08T11:21:01.303Z,101763.81
2022-11-08T11:23:43.741Z,101759.75
2022-11-08T11:26:32.150Z,101763.81
2022-11-08T11:29:22.152Z,101725.88
2022-11-08T11:31:54.950Z,101753.25
2022-11-08T11:34:35.032Z,101747.91
2022-11-08T11:37:38.268Z,101728.22
2022-11-08T11:40:15.962Z,101740.88
2022-11-08T11:42:55.379Z,101728.63
2022-11-08T11:45:46.775Z,101736.06
2022-11-08T11:48:21.738Z,101724.78
2022-11-08T11:50:50.253Z,101691.56
2022-11-08T11:53:16.961Z,101734.09
2022-11-08T11:55:46.852Z,101727.88
2022-11-08T11:58:30.746Z,101704.66
2022-11-08T12:01:46.438Z,101663.44
2022-11-08T12:04:13.105Z,101720.06
2022-11-08T12:06:49.010Z,101720.81
2022-11-08T12:09:42.211Z,101712.75
2022-11-08T12:12:42.884Z,101710.06
2022-11-08T12:15:48.274Z,101704.28
2022-11-08T12:18:42.619Z,101702.72
2022-11-08T12:21:15.638Z,101703.00
2022-11-08T12:24:16.466Z,101703.28
2022-11-08T12:27:13.983Z,101703.00
2022-11-08T12:29:41.487Z,101650.63
2022-11-08T12:32:20.283Z,101650.66
2022-11-08T12:34:46.988Z,101597.72
2022-11-08T12:37:34.576Z,101692.41
2022-11-08T12:40:17.418Z,101690.88
2022-11-08T12:43:08.496Z,101699.59
2022-11-08T12:45:38.999Z,101680.97
2022-11-08T12:48:32.779Z,101687.16
2022-11-08T12:51:09.180Z,101685.19
2022-11-08T12:53:59.229Z,101653.94
2022-11-08T12:56:46.235Z,101683.06
2022-11-08T12:59:30.351Z,101669.66
2022-11-08T13:01:58.712Z,101673.88
2022-11-08T13:04:47.032Z,101649.09
2022-11-08T13:07:36.571Z,101671.25
2022-11-08T13:10:13.147Z,101671.41
2022-11-08T13:12:54.957Z,101670.72
2022-11-08T13:15:28.686Z,101653.84
2022-11-08T13:18:07.833Z,101560.75
2022-11-08T13:20:47.124Z,101622.28
2022-11-08T13:23:23.625Z,101661.38
2022-11-08T13:25:52.073Z,101634.94
2022-11-08T13:28:35.656Z,101620.47
2022-11-08T13:31:24.570Z,101642.84
2022-11-08T13:34:14.363Z,101646.19
2022-11-08T13:37:05.772Z,101501.16
2022-11-08T13:40:00.401Z,101594.75
2022-11-08T13:42:30.828Z,101627.94
2022-11-08T13:45:13.068Z,101663.53
2022-11-08T13:47:42.902Z,101639.28
2022-11-08T13:50:27.981Z,101654.47
2022-11-08T13:53:10.810Z,101636.06
2022-11-08T13:55:43.568Z,101657.84
2022-11-08T13:58:29.233Z,101648.13
2022-11-08T14:01:01.123Z,101654.31
2022-11-08T14:03:33.929Z,101567.00
2022-11-08T14:06:09.066Z,101657.69
2022-11-08T14:09:20.734Z,101629.69
2022-11-08T14:11:54.240Z,101626.56
2022-11-08T14:14:39.698Z,101644.97
2022-11-08T14:17:33.331Z,101646.91
2022-11-08T14:20:18.730Z,101639.22
2022-11-08T14:22:50.404Z,101568.25
2022-11-08T14:25:26.662Z,101625.50
2022-11-08T14:27:54.324Z,101626.94
2022-11-08T14:30:23.873Z,101624.06
2022-11-08T14:33:14.520Z,101642.75
2022-11-08T14:36:20.213Z,101613.09
2022-11-08T14:39:04.020Z,101467.69
2022-11-08T14:41:32.723Z,101635.31
2022-11-08T14:44:01.577Z,101649.28
2022-11-08T14:46:40.960Z,101629.00
2022-11-08T14:49:13.846Z,101654.63
2022-11-08T14:51:41.250Z,101650.94
2022-11-08T14:54:25.270Z,101563.25
2022-11-08T14:56:52.210Z,101648.97
2022-11-08T14:59:19.234Z,101632.09
2022-11-08T15:01:48.838Z,101611.84
2022-11-08T15:04:21.620Z,101594.44
2022-11-08T15:06:58.047Z,101638.81
2022-11-08T15:09:33.648Z,101628.03
2022-11-08T15:12:03.246Z,101602.03
2022-11-08T15:14:37.211Z,101629.69
2022-11-08T15:17:04.204Z,101632.56
2022-11-08T15:19:43.332Z,101627.94
2022-11-08T15:22:27.714Z,101577.66
2022-11-08T15:25:34.584Z,101630.88
2022-11-08T15:28:37.485Z,101625.16
2022-11-08T15:31:17.167Z,101624.06
2022-11-08T15:33:44.624Z,101564.19
2022-11-08T15:36:13.551Z,101624.69
2022-11-08T15:38:42.533Z,101626.66
2022-11-08T15:41:44.912Z,101443.81
2022-11-08T15:44:23.186Z,101628.94
2022-11-08T15:46:51.779Z,101629.22
2022-11-08T15:49:29.821Z,101611.41
2022-11-08T15:52:00.539Z,101639.28
2022-11-08T15:54:27.448Z,101550.97
2022-11-08T15:56:58.681Z,101601.88
2022-11-08T15:59:30.229Z,101620.31
2022-11-08T16:02:00.733Z,101458.97
2022-11-08T16:04:30.885Z,101565.22
2022-11-08T16:06:58.651Z,101562.47
2022-11-08T16:09:25.404Z,101600.44
2022-11-08T16:11:55.284Z,101576.25
2022-11-08T16:14:24.633Z,101620.81
2022-11-08T16:16:56.554Z,101591.88
2022-11-08T16:19:29.275Z,101597.38
2022-11-08T16:21:58.594Z,101616.50
2022-11-08T16:24:25.410Z,101630.03
2022-11-08T16:26:54.633Z,101616.28
2022-11-08T16:29:23.481Z,101583.63
2022-11-08T16:31:53.363Z,101634.19
2022-11-08T16:34:20.456Z,101631.78
2022-11-08T16:39:55.518Z,101608.13
2022-11-08T16:42:23.718Z,101639.56
2022-11-08T16:44:51.985Z,101636.31
2022-11-08T16:47:19.884Z,101638.28
2022-11-08T16:49:51.455Z,101638.28
2022-11-08T16:52:18.553Z,101637.13
2022-11-08T16:54:45.236Z,101578.34
2022-11-08T16:57:33.658Z,101632.66
2022-11-08T16:59:58.892Z,101604.53
2022-11-08T17:02:34.641Z,101612.56
2022-11-08T17:05:01.778Z,101645.50
2022-11-08T17:07:29.456Z,101641.69
2022-11-08T17:09:56.108Z,101654.06
2022-11-08T17:12:24.276Z,101634.53
2022-11-08T17:14:53.563Z,101650.16
2022-11-08T17:17:30.642Z,101636.06
2022-11-08T17:19:57.354Z,101639.31
2022-11-08T17:22:24.152Z,101537.53
2022-11-08T17:24:51.277Z,101654.94
2022-11-08T17:27:19.891Z,101595.53
2022-11-08T17:29:46.931Z,101666.63
2022-11-08T17:32:14.586Z,101667.03
2022-11-08T17:34:46.628Z,101661.97
2022-11-08T17:37:17.671Z,101636.91
2022-11-08T17:39:45.980Z,101630.16
2022-11-08T17:42:13.071Z,101671.00
2022-11-08T17:44:40.526Z,101670.56
2022-11-08T17:47:07.323Z,101662.97
2022-11-08T17:49:34.208Z,101679.13
2022-11-08T17:52:00.926Z,101684.19
2022-11-08T17:54:28.869Z,101683.34
2022-11-08T17:56:55.878Z,101682.06
2022-11-08T17:59:22.713Z,101632.44
2022-11-08T18:01:52.812Z,101637.78
2022-11-08T18:04:22.437Z,101581.47
2022-11-08T18:06:52.555Z,101562.88
2022-11-08T18:09:20.190Z,101688.94
2022-11-08T18:11:50.616Z,101702.72
2022-11-08T18:14:22.000Z,101657.63
2022-11-08T18:16:56.127Z,101641.41
2022-11-08T18:19:23.579Z,101695.09
2022-11-08T18:21:50.512Z,101697.47
2022-11-08T18:24:17.418Z,101698.31
2022-11-08T18:26:44.460Z,101676.88
2022-11-08T18:29:12.568Z,101686.47
2022-11-08T18:31:39.805Z,101707.91
2022-11-08T18:34:06.649Z,101695.56
2022-11-08T18:36:33.588Z,101695.47
2022-11-08T18:39:01.391Z,101697.56
2022-11-08T18:41:31.699Z,101708.31
2022-11-08T18:44:02.390Z,101694.56
2022-11-08T18:46:36.558Z,101703.53
2022-11-08T18:49:14.822Z,101704.31
2022-11-08T18:51:45.448Z,101693.47
2022-11-08T18:54:12.544Z,101705.16
2022-11-08T18:56:41.311Z,101691.31
2022-11-08T18:59:11.317Z,101673.97
2022-11-08T19:01:51.217Z,101691.03
2022-11-08T19:04:18.078Z,101696.50
2022-11-08T19:06:48.784Z,101663.38
2022-11-08T19:09:19.410Z,101685.78
2022-11-08T19:11:47.775Z,101634.91
2022-11-08T19:14:17.209Z,101681.28
2022-11-08T19:16:44.141Z,101675.22
2022-11-08T19:19:13.982Z,101661.97
2022-11-08T19:21:44.535Z,101688.31
2022-11-08T19:24:17.772Z,101691.78
2022-11-08T19:26:46.529Z,101693.84
2022-11-08T19:29:14.369Z,101692.56
2022-11-08T19:31:47.817Z,101496.91
2022-11-08T19:34:15.844Z,101635.59
2022-11-08T19:36:49.030Z,101691.28
2022-11-08T19:39:19.339Z,101695.25
2022-11-08T19:41:48.271Z,101699.13
2022-11-08T19:44:19.155Z,101697.28
2022-11-08T19:46:46.179Z,101698.53
2022-11-08T19:49:13.186Z,101687.34
2022-11-08T19:51:42.195Z,101664.13
2022-11-08T19:54:21.726Z,101668.19
2022-11-08T19:57:10.534Z,101702.00
2022-11-08T19:59:40.414Z,101644.72
2022-11-08T20:02:07.462Z,101680.47
2022-11-08T20:04:34.691Z,101689.47
2022-11-08T20:07:02.666Z,101655.41
2022-11-08T20:09:33.038Z,101664.66
2022-11-08T20:12:00.092Z,101675.47
2022-11-08T20:14:28.514Z,101689.66
2022-11-08T20:16:55.785Z,101644.50
2022-11-08T20:19:28.166Z,101631.78
2022-11-08T20:21:58.197Z,101661.94
2022-11-08T20:24:26.580Z,101662.97
2022-11-08T20:26:58.067Z,101687.75
2022-11-08T20:29:30.551Z,101665.44
2022-11-08T20:31:58.090Z,101702.09
2022-11-08T20:34:26.444Z,101625.25
2022-11-08T20:36:55.687Z,101706.13
2022-11-08T20:39:23.762Z,101642.06
2022-11-08T20:41:56.838Z,101630.97
2022-11-08T20:44:24.370Z,101698.38
2022-11-08T20:46:51.929Z,101687.63
2022-11-08T20:49:20.476Z,101686.31
2022-11-08T20:51:49.167Z,101673.88
2022-11-08T20:54:17.557Z,101653.19
2022-11-08T20:56:48.886Z,101672.06
2022-11-08T20:59:23.578Z,101672.06
2022-11-08T21:01:53.002Z,101669.88
2022-11-08T21:04:20.868Z,101702.31
2022-11-08T21:06:47.791Z,101705.34
2022-11-08T21:09:37.431Z,101699.72
2022-11-08T21:12:09.522Z,101676.56
2022-11-08T21:14:38.935Z,101698.84
2022-11-08T21:17:22.632Z,101696.06
2022-11-08T21:19:51.251Z,101704.25
2022-11-08T21:22:21.544Z,101677.50
2022-11-08T21:24:51.196Z,101609.66
2022-11-08T21:27:18.420Z,101678.69
2022-11-08T21:29:48.130Z,101690.22
2022-11-08T21:32:20.842Z,101674.16
2022-11-08T21:34:50.935Z,101659.66
2022-11-08T21:37:17.736Z,101703.94
2022-11-08T21:39:59.007Z,101680.56
2022-11-08T21:42:26.989Z,101671.50
2022-11-08T21:44:53.871Z,101672.59
2022-11-08T21:47:25.720Z,101650.56
2022-11-08T21:49:53.043Z,101678.66
2022-11-08T21:52:28.536Z,101683.84
2022-11-08T21:54:55.602Z,101660.53
2022-11-08T21:57:23.641Z,101677.84
2022-11-08T21:59:50.393Z,101634.06
2022-11-08T22:02:17.216Z,101627.75
2022-11-08T22:04:47.658Z,101696.13
2022-11-08T22:07:14.517Z,101679.78
2022-11-08T22:09:42.526Z,101679.50
2022-11-08T22:12:11.630Z,101674.69
2022-11-08T22:14:38.878Z,101645.91
2022-11-08T22:17:06.522Z,101692.13
2022-11-08T22:19:33.923Z,101685.72
2022-11-08T22:22:04.995Z,101664.31
2022-11-08T22:24:32.512Z,101646.91
2022-11-08T22:27:04.130Z,101666.38
2022-11-08T22:29:31.079Z,101684.63
2022-11-08T22:31:58.775Z,101694.09
2022-11-08T22:34:25.856Z,101625.88
2022-11-08T22:36:52.660Z,101629.13
2022-11-08T22:39:33.273Z,101692.84
2022-11-08T22:42:00.310Z,101675.31
2022-11-08T22:44:32.932Z,101623.69
2022-11-08T22:46:59.523Z,101683.53
2022-11-08T22:49:26.176Z,101690.59
2022-11-08T22:51:53.412Z,101682.81
2022-11-08T22:54:20.180Z,101627.06
2022-11-08T22:56:48.333Z,101666.13
2022-11-08T22:59:19.154Z,101690.59
2022-11-08T23:01:49.000Z,101668.31
2022-11-08T23:04:15.820Z,101692.88
2022-11-08T23:06:44.427Z,101657.78
2022-11-08T23:09:13.453Z,101664.31
2022-11-08T23:11:59.376Z,101687.56
2022-11-08T23:14:47.074Z,101659.81
2022-11-08T23:17:13.865Z,101656.69
2022-11-08T23:19:59.233Z,101655.22
2022-11-08T23:22:47.526Z,101672.72
2022-11-08T23:25:14.795Z,101655.69
2022-11-08T23:27:59.918Z,101681.72
2022-11-08T23:30:47.034Z,101659.00
2022-11-08T23:33:13.974Z,101656.31
2022-11-08T23:36:00.796Z,101651.84
2022-11-08T23:38:27.525Z,101663.81
2022-11-08T23:41:17.366Z,101636.94
2022-11-08T23:44:03.886Z,101634.06
2022-11-08T23:46:30.639Z,101606.47
2022-11-08T23:48:57.391Z,101604.50
2022-11-08T23:51:25.822Z,101653.34
2022-11-08T23:53:52.709Z,101609.84
2022-11-08T23:56:26.996Z,101593.28
2022-11-08T23:58:58.198Z,101615.19
